TOURFACTS.DK  
Stats and Facts from Tour de France.

Tour de France 2019 starts in 320 days
  Riders   Stages   Teams   Summits   Yearly  


 
Search by year

After 2018 - Stage 21:
 15000 starters.
  5165 different riders.
  638 teams.
  2253 stages.
  456 restdays.
  442940.60 km.
  5684 abandonnees.


Top 3
GC
Geraint Thomas83:17:13
Tom Dumoulin83:19:04
Christopher Froome83:19:37
Climb
Julian Alaphilippe170 pt.
Warren Barguil91 pt.
Rafal Majka76 pt.
Sprint
Peter Sagan477 pt.
Alexander Kristoff246 pt.
Arnaud Démare203 pt.
Youth
Pierre-Roger Latou..83:39:26
Egan Bernal83:45:05
Guillaume Martin84:01:31
Facts from Tour de France 2016
  |   Stages.  |   Stage winners.  |   Days in yellow  |   Average speed.  |   Route.  |   Teams.  |   All riders.  |   Rookies.  |  

  |   Withdrawls.  |   GC.  |   Polka  |   Green  |   White  |   Summits. (In tour)  |   Miscellaneous.  |  

Stage 10 on 12 - 07 - 2016
         Owning:    Christopher Froome      Thibaut Pinot      Peter Sagan      Adam Yates  

Pick a stage:  1 2 3 4 5 6 7 8 9 10 11 12 13 14 15 16 17 18 19 20 21
  Escaldes-EngordanyRevel | Dist: 198.00 km.
Cat: 1Port d'EnvaliraPORRui Costa10 points 
Cat: 3Côte de Saint FerréolSVKPeter Sagan2 points 

Average speed for all riders in stage:  43,710 km./hr.
    Place:Name:Team:Time:Km/h:
1
AUSMichael MatthewsAUSORICA BikeExchange04:22:38  +  00:00:00=45,234 
2
SVKPeter SaganRUSTinkoff04:22:38  +  00:00:00=45,234 
3
NOREdvald Boasson HagenZAFDimension Data04:22:38  +  00:00:00=45,234 
44 BELGreg Van AvermaetUSABMC Racing Team04:22:38  +  00:00:00=45,234 
55 FRASamuel DumoulinFRAAg2r La Mondiale04:22:38  +  00:00:00=45,234 
66 RSADaryl ImpeyAUSORICA BikeExchange04:22:40  +  00:00:02=45,228 
77 AUSLuke DurbridgeAUSORICA BikeExchange04:23:48  +  00:01:10=45,034 
88 ITADamiano CarusoUSABMC Racing Team04:25:39  +  00:03:01=44,720 
99 ESPGorka Izaguirre InsaustiESPMovistar Team04:25:48  +  00:03:10=44,695 
1010 FRATony GallopinBELLotto Soudal04:25:48  +  00:03:10=44,695 
1111 PORRui CostaITALampre-Merida04:25:48  +  00:03:10=44,695 
1212 FRASylvain ChavanelFRADirect Energie04:25:48  +  00:03:10=44,695 
1313 ESPMikel Landa MeanaGBRSky Procycling04:25:52  +  00:03:14=44,684 
1414 ITAVincenzo NibaliKAZAstana Pro Team04:25:52  +  00:03:14=44,684 
1515 ENGStephen CummingsZAFDimension Data04:28:13  +  00:05:35=44,293 
1616 BELEdward TheunsUSATrek - Segafredo04:32:17  +  00:09:39=43,631 
1717 BELJasper StuyvenUSATrek - Segafredo04:32:17  +  00:09:39=43,631 
1818 DENMichael ValgrenRUSTinkoff04:32:17  +  00:09:39=43,631 
1919 GERTony MartinBELEtixx - Quick Step04:32:17  +  00:09:39=43,631 
2020 WALLuke RoweGBRSky Procycling04:32:17  +  00:09:39=43,631 
2121 SLOKristjan KorenUSATeam Cannondale Drapac04:32:17  +  00:09:39=43,631 
2222 ENGIan StannardGBRSky Procycling04:32:17  +  00:09:39=43,631 
2323 ESPImanol ErvitiESPMovistar Team04:32:17  +  00:09:39=43,631 
2424 NEDBauke MollemaUSATrek - Segafredo04:32:17  +  00:09:39=43,631 
2525 KENChristopher FroomeGBRSky Procycling04:32:17  +  00:09:39=43,631 
2626 AUSRichie PorteUSABMC Racing Team04:32:17  +  00:09:39=43,631 
2727 GERMarcus BurghardtUSABMC Racing Team04:32:17  +  00:09:39=43,631 
2828 FRAPierre RollandUSATeam Cannondale Drapac04:32:17  +  00:09:39=43,631 
2929 ENGDaniel MartinBELEtixx - Quick Step04:32:17  +  00:09:39=43,631 
3030 PORNelson OliveiraESPMovistar Team04:32:17  +  00:09:39=43,631 
3131 FRAMickaël CherelFRAAg2r La Mondiale04:32:17  +  00:09:39=43,631 
3232 COLNairo QuintanaESPMovistar Team04:32:17  +  00:09:39=43,631 
3333 NEDDylan Van BaarleUSATeam Cannondale Drapac04:32:17  +  00:09:39=43,631 
3434 ITAFabio AruKAZAstana Pro Team04:32:17  +  00:09:39=43,631 
3535 ITAFabio SabatiniBELEtixx - Quick Step04:32:17  +  00:09:39=43,631 
3636 WALGeraint ThomasGBRSky Procycling04:32:17  +  00:09:39=43,631 
3737 ESPJoaquim RodriguezRUSTeam Katusha04:32:17  +  00:09:39=43,631 
3838 NEDRoy CurversDEUTeam Giant Alpecin04:32:17  +  00:09:39=43,631 
3939 ESPAlejandro ValverdeESPMovistar Team04:32:17  +  00:09:39=43,631 
4040 ITAMatteo BonoITALampre-Merida04:32:17  +  00:09:39=43,631 
4141 ETHTsgabu Gebremaryan GrmayITALampre-Merida04:32:17  +  00:09:39=43,631 
4242 GEREmanuel BuchmannDEUBora-Argon 1804:32:17  +  00:09:39=43,631 
4343 ENGAdam YatesAUSORICA BikeExchange04:32:17  +  00:09:39=43,631 
4444 AUSRohan DennisUSABMC Racing Team04:32:17  +  00:09:39=43,631 
4545 AUSMathew HaymanAUSORICA BikeExchange04:32:17  +  00:09:39=43,631 
4646 COLSergio Luis HenaoGBRSky Procycling04:32:17  +  00:09:39=43,631 
4747 FRAArthur VichotFRAFDJ04:32:17  +  00:09:39=43,631 
4848 SUIMichael SchärUSABMC Racing Team04:32:17  +  00:09:39=43,631 
4949 FRACyril GautierFRAAg2r La Mondiale04:32:17  +  00:09:39=43,631 
5050 AUSSimon GerransAUSORICA BikeExchange04:32:17  +  00:09:39=43,631 
5151 ESPJesus HerradaESPMovistar Team04:32:17  +  00:09:39=43,631 
5252 ITAPaolo TiralongoKAZAstana Pro Team04:32:17  +  00:09:39=43,631 
5353 ITACesare BenedettiDEUBora-Argon 1804:32:17  +  00:09:39=43,631 
5454 NEDRamon SinkeldamDEUTeam Giant Alpecin04:32:17  +  00:09:39=43,631 
5555 BLRVasil KiryienkaGBRSky Procycling04:32:17  +  00:09:39=43,631 
5656 JPNYukiya ArashiroITALampre-Merida04:32:17  +  00:09:39=43,631 
5757 ESPMikel NieveGBRSky Procycling04:32:17  +  00:09:39=43,631 
5858 BELJurgen Van Den BroeckRUSTeam Katusha04:32:17  +  00:09:39=43,631 
5959 ESPJon Izaguirre InsaustiESPMovistar Team04:32:17  +  00:09:39=43,631 
6060 CZERoman KreuzigerRUSTinkoff04:32:17  +  00:09:39=43,631 
6161 FRARomain BardetFRAAg2r La Mondiale04:32:17  +  00:09:39=43,631 
6262 RSALouis MeintjesITALampre-Merida04:32:17  +  00:09:39=43,631 
6363 FRAPierre-Luc PérichonFRAFortuneo - Vital Concept04:32:17  +  00:09:39=43,631 
6464 USATejay Van GarderenUSABMC Racing Team04:32:17  +  00:09:39=43,631 
6565 SUISébastien ReichenbachFRAFDJ04:32:17  +  00:09:39=43,631 
6666 ESPAlberto LosadaRUSTeam Katusha04:32:17  +  00:09:39=43,631 
6767 NEDTom-Jelte SlagterUSATeam Cannondale Drapac04:32:17  +  00:09:39=43,631 
6868 SLOLuka PibernikITALampre-Merida04:32:17  +  00:09:39=43,631 
6969 NEDBert-Jan LindemanNLDTeam Lotto NL - Jumbo04:32:17  +  00:09:39=43,631 
7070 DENChris Anker SørensenFRAFortuneo - Vital Concept04:32:17  +  00:09:39=43,631 
7171 LUXBen GastauerFRAAg2r La Mondiale04:32:17  +  00:09:39=43,631 
7272 FRAAnthony DelaplaceFRAFortuneo - Vital Concept04:32:17  +  00:09:39=43,631 
7373 FRAAlexis VuillermozFRAAg2r La Mondiale04:32:17  +  00:09:39=43,631 
7474 SUIGregory RastUSATrek - Segafredo04:32:17  +  00:09:39=43,631 
7575 FRAWarren BarguilDEUTeam Giant Alpecin04:32:17  +  00:09:39=43,631 
7676 FRAAnthony RouxFRAFDJ04:32:17  +  00:09:39=43,631 
7777 RSAReinardt Janse Van RensburgZAFDimension Data04:32:17  +  00:09:39=43,631 
7878 ARGEduardo SepulvedaFRAFortuneo - Vital Concept04:32:17  +  00:09:39=43,631 
7979 SUIFabian CancellaraUSATrek - Segafredo04:32:17  +  00:09:39=43,631 
8080 ITADomenico PozzovivoFRAAg2r La Mondiale04:32:17  +  00:09:39=43,631 
8181 SLOJan PolancITALampre-Merida04:32:17  +  00:09:39=43,631 
8282 ESPÁngel ViciosoRUSTeam Katusha04:32:17  +  00:09:39=43,631 
8383 ESPHaimar ZubeldiaUSATrek - Segafredo04:32:17  +  00:09:39=43,631 
8484 FRABrice FeilluFRAFortuneo - Vital Concept04:32:17  +  00:09:39=43,631 
8585 LUXFränk SchleckUSATrek - Segafredo04:32:17  +  00:09:39=43,631 
8686 ITADiego RosaKAZAstana Pro Team04:32:17  +  00:09:39=43,631 
8787 ESPLuis León SánchezKAZAstana Pro Team04:32:17  +  00:09:39=43,631 
8888 CZEJan BártaDEUBora-Argon 1804:32:17  +  00:09:39=43,631 
8989 CZEPetr VakocBELEtixx - Quick Step04:32:17  +  00:09:39=43,631 
9090 ITAMatteo TosattoRUSTinkoff04:32:17  +  00:09:39=43,631 
9191 ESPDaniel MorenoESPMovistar Team04:32:17  +  00:09:39=43,631 
9292 UKRAndriy GrivkoKAZAstana Pro Team04:32:17  +  00:09:39=43,631 
9393 FRANicolas EdetFRACofidis – Solutions Crédits04:32:17  +  00:09:39=43,631 
9494 POLMaciej BodnarRUSTinkoff04:32:17  +  00:09:39=43,631 
9595 USALawson CraddockUSATeam Cannondale Drapac04:32:17  +  00:09:39=43,631 
9696 BELJan BakelantsFRAAg2r La Mondiale04:32:17  +  00:09:39=43,631 
9797 AUTGeorg PreidlerDEUTeam Giant Alpecin04:32:17  +  00:09:39=43,631 
9898 NEDStef ClementCHEIAM Cycling04:32:17  +  00:09:39=43,631 
9999 USABrent BookwalterUSABMC Racing Team04:32:17  +  00:09:39=43,631 
100100 USAAlex HowesUSATeam Cannondale Drapac04:32:17  +  00:09:39=43,631 
101101 SUIMathias FrankCHEIAM Cycling04:32:17  +  00:09:39=43,631 
102102 BELSerge PauwelsZAFDimension Data04:32:17  +  00:09:39=43,631 
103103 SUIMartin ElmigerCHEIAM Cycling04:32:17  +  00:09:39=43,631 
104104 URSTanel KangertKAZAstana Pro Team04:32:17  +  00:09:39=43,631 
105105 ESPMarkel IrizarUSATrek - Segafredo04:32:17  +  00:09:39=43,631 
106106 IOMMark CavendishZAFDimension Data04:32:17  +  00:09:39=43,631 
107107 GERMarcel SiebergBELLotto Soudal04:32:17  +  00:09:39=43,631 
108108 GERAndré GreipelBELLotto Soudal04:32:17  +  00:09:39=43,631 
109109 SUIMichael AlbasiniAUSORICA BikeExchange04:32:17  +  00:09:39=43,631 
110110 DENLars BakBELLotto Soudal04:32:17  +  00:09:39=43,631 
111111 NEDLaurens ten DamDEUTeam Giant Alpecin04:32:17  +  00:09:39=43,631 
112112 AUTPatrick KonradDEUBora-Argon 1804:32:17  +  00:09:39=43,631 
113113 ERIDaniel TeklehaimanotZAFDimension Data04:32:17  +  00:09:39=43,631 
114114 FRA Alexis GougeardFRAAg2r La Mondiale04:32:17  +  00:09:39=43,631 
115115 FRAJulian AlaphilippeBELEtixx - Quick Step04:32:17  +  00:09:39=43,631 
116116 GERMarcel KittelBELEtixx - Quick Step04:32:17  +  00:09:39=43,631 
117117 RUSIlnur ZakarinRUSTeam Katusha04:32:17  +  00:09:39=43,631 
118118 NEDTimo RoosenNLDTeam Lotto NL - Jumbo04:32:17  +  00:09:39=43,631 
119119 AUTBernhard EiselZAFDimension Data04:32:17  +  00:09:39=43,631 
120120 FRAArmindo FonsecaFRAFortuneo - Vital Concept04:32:17  +  00:09:39=43,631 
121121 FRAThibaut PinotFRAFDJ04:32:17  +  00:09:39=43,631 
122122 FRAAmaël MoinardUSABMC Racing Team04:32:17  +  00:09:39=43,631 
123123 ESPRubén PlazaAUSORICA BikeExchange04:32:17  +  00:09:39=43,631 
124124 NEDWilco KeldermanNLDTeam Lotto NL - Jumbo04:32:17  +  00:09:39=43,631 
125125 SUIJakob FuglsangKAZAstana Pro Team04:32:17  +  00:09:39=43,631 
126126 IRLChristopher Juul JensenAUSORICA BikeExchange04:32:17  +  00:09:39=43,631 
127127 ESPDaniel NavarroFRACofidis – Solutions Crédits04:32:17  +  00:09:39=43,631 
128128 USAPeter StetinaUSATrek - Segafredo04:32:17  +  00:09:39=43,631 
129129 COLWinner AnaconaESPMovistar Team04:32:17  +  00:09:39=43,631 
130130 COLJarlinson Pantano GomezCHEIAM Cycling04:32:17  +  00:09:39=43,631 
131131 FRAFlorian VachonFRAFortuneo - Vital Concept04:32:17  +  00:09:39=43,631 
132132 BELThomas De GendtBELLotto Soudal04:32:17  +  00:09:39=43,631 
133133 SUIReto HollensteinCHEIAM Cycling04:32:17  +  00:09:39=43,631 
134134 BELOliver NaesenCHEIAM Cycling04:32:17  +  00:09:39=43,631 
135135 NORSondre Holst EngerCHEIAM Cycling04:32:17  +  00:09:39=43,631 
136136 BELMaarten WynantsNLDTeam Lotto NL - Jumbo04:32:17  +  00:09:39=43,631 
137137 GERSimon GeschkeDEUTeam Giant Alpecin04:32:17  +  00:09:39=43,631 
138138 SLOBorut BozicFRACofidis – Solutions Crédits04:32:17  +  00:09:39=43,631 
139139 HRVKristijan DurasekITALampre-Merida04:32:17  +  00:09:39=43,631 
140140 NEDWout PoelsGBRSky Procycling04:32:17  +  00:09:39=43,631 
141141 BELJürgen RoelandtsBELLotto Soudal04:32:17  +  00:09:39=43,631 
142142 URSRamunas NavardauskasUSATeam Cannondale Drapac04:32:17  +  00:09:39=43,631 
143143 DENMatti BreschelUSATeam Cannondale Drapac04:32:17  +  00:09:39=43,631 
144144 FRAJérémy RoyFRAFDJ04:32:17  +  00:09:39=43,631 
145145 FRAWilliam BonnetFRAFDJ04:32:17  +  00:09:39=43,631 
146146 FRAJérôme CoppelCHEIAM Cycling04:32:17  +  00:09:39=43,631 
147147 SUISteve MorabitoFRAFDJ04:32:17  +  00:09:39=43,631 
148148 NEDTom DumoulinDEUTeam Giant Alpecin04:32:17  +  00:09:39=43,631 
149149 NEDAlbert TimmerDEUTeam Giant Alpecin04:32:17  +  00:09:39=43,631 
150150 POLRafal MajkaRUSTinkoff04:32:17  +  00:09:39=43,631 
151151 POLBartosz HuzarskiDEUBora-Argon 1804:32:17  +  00:09:39=43,631 
152152 FRAAngelo TulikFRADirect Energie04:32:17  +  00:09:39=43,631 
153153 ERINatnael Teweldemedhin BerhaneZAFDimension Data04:32:17  +  00:09:39=43,631 
154154 ESPLuis Angel MateFRACofidis – Solutions Crédits04:32:17  +  00:09:39=43,631 
155155 HRVRobert KiserlovskiRUSTinkoff04:32:17  +  00:09:39=43,631 
156156 ITAOscar GattoRUSTinkoff04:32:17  +  00:09:39=43,631 
157157 CANAntoine DuchesneFRADirect Energie04:32:17  +  00:09:39=43,631 
158158 FRAFabrice JeandesbozFRADirect Energie04:32:17  +  00:09:39=43,631 
159159 BELJulien VermoteBELEtixx - Quick Step04:32:17  +  00:09:39=43,631 
160160 GERPaul VossDEUBora-Argon 1804:32:17  +  00:09:39=43,631 
161161 GERJohn DegenkolbDEUTeam Giant Alpecin04:32:17  +  00:09:39=43,631 
162162 AUSAdam HansenBELLotto Soudal04:32:17  +  00:09:39=43,631 
163163 FRABryan CoquardFRADirect Energie04:32:17  +  00:09:39=43,631 
164164 NORAlexander KristoffRUSTeam Katusha04:32:17  +  00:09:39=43,631 
165165 NORVegard BreenFRAFortuneo - Vital Concept04:32:17  +  00:09:39=43,631 
166166 NEDDylan GroenewegenNLDTeam Lotto NL - Jumbo04:32:17  +  00:09:39=43,631 
167167 GERRobert WagnerNLDTeam Lotto NL - Jumbo04:32:17  +  00:09:39=43,631 
168168 GERPaul MartensNLDTeam Lotto NL - Jumbo04:32:17  +  00:09:39=43,631 
169169 FRAAdrien PetitFRADirect Energie04:32:17  +  00:09:39=43,631 
170170 BELJens DebusschereBELLotto Soudal04:32:17  +  00:09:39=43,631 
171171 FRAThomas VoecklerFRADirect Energie04:32:17  +  00:09:39=43,631 
172172 BELIljo KeisseBELEtixx - Quick Step04:32:17  +  00:09:39=43,631 
173173 NZLGregory HendersonBELLotto Soudal04:32:17  +  00:09:39=43,631 
174174 FRAYohann GèneFRADirect Energie04:32:17  +  00:09:39=43,631 
175175 FRAGeoffrey SoupeFRACofidis – Solutions Crédits04:32:17  +  00:09:39=43,631 
176176 ITADavide CimolaiITALampre-Merida04:32:17  +  00:09:39=43,631 
177177 FRAJérôme CousinFRACofidis – Solutions Crédits04:32:17  +  00:09:39=43,631 
178178 BRAMaximilano RichezeBELEtixx - Quick Step04:32:17  +  00:09:39=43,631 
179179 FRARomain SicardFRADirect Energie04:32:17  +  00:09:39=43,631 
180180 NZLGeorge BennettNLDTeam Lotto NL - Jumbo04:32:51  +  00:10:13=43,540 
181181 BELSep VanmarckeNLDTeam Lotto NL - Jumbo04:32:51  +  00:10:13=43,540 
182182 FRAChristophe LaporteFRACofidis – Solutions Crédits04:33:16  +  00:10:38=43,474 
183183 FRAArnold JeannessonFRACofidis – Solutions Crédits04:33:16  +  00:10:38=43,474 
184184 KAZAlexey LutsenkoKAZAstana Pro Team04:33:16  +  00:10:38=43,474 
185185 GERAndreas SchillingerDEUBora-Argon 1804:33:16  +  00:10:38=43,474 
186186 BELSam BennettDEUBora-Argon 1804:33:16  +  00:10:38=43,474 
187187 FRACyril LemoineFRACofidis – Solutions Crédits04:33:20  +  00:10:42=43,463 
188188 ITAJacopo GuarnieriRUSTeam Katusha04:34:16  +  00:11:38=43,316 
189189 AUTMarco HallerRUSTeam Katusha04:34:16  +  00:11:38=43,316 
190190 ENGDaniel McLayFRAFortuneo - Vital Concept04:34:16  +  00:11:38=43,316 
191191 NZLShane ArchboldDEUBora-Argon 1804:34:16  +  00:11:38=43,316 
192192 AUSLeigh HowardCHEIAM Cycling04:34:16  +  00:11:38=43,316 

Withdrawls: 1
 
Rider
Team
Reason
86  NEDSebastian LangeveldUSATeam Cannondale DrapacDid not finish
Todays birthdays.

1878  Jean Novo
1883  Jules Chabas
1890  Ange Aubry
1893  Roger Marye
1913  Paul Maye
1914  Lucien Vlaemynck
1915  Alphonse Antoine
1932  Rolf Graf
1953  Julio Rubiano
1959  Jos Haex
1959  Gerard Veldscholten
1963  Pablo Moreno
1964  Juan Castillo
1977  Iban Mayo
1994  Fernando Gaviria